sensor_id;sensor_type;location;lat;lon;timestamp;temperature;humidity
1700;DHT22;847;48.058;7.810;2024-02-26T00:01:42;10.00;84.50
1700;DHT22;847;48.058;7.810;2024-02-26T00:04:09;10.00;85.00
1700;DHT22;847;48.058;7.810;2024-02-26T00:06:36;10.00;85.60
1700;DHT22;847;48.058;7.810;2024-02-26T00:09:06;10.00;86.00
1700;DHT22;847;48.058;7.810;2024-02-26T00:11:35;10.00;87.00
1700;DHT22;847;48.058;7.810;2024-02-26T00:14:02;10.00;87.60
1700;DHT22;847;48.058;7.810;2024-02-26T00:16:30;10.00;88.30
1700;DHT22;847;48.058;7.810;2024-02-26T00:18:57;10.00;89.50
1700;DHT22;847;48.058;7.810;2024-02-26T00:21:24;10.00;90.20
1700;DHT22;847;48.058;7.810;2024-02-26T00:23:59;9.90;90.90
1700;DHT22;847;48.058;7.810;2024-02-26T00:26:27;9.90;90.60
1700;DHT22;847;48.058;7.810;2024-02-26T00:28:56;9.90;92.00
1700;DHT22;847;48.058;7.810;2024-02-26T00:31:24;9.90;92.80
1700;DHT22;847;48.058;7.810;2024-02-26T00:33:51;9.80;93.80
1700;DHT22;847;48.058;7.810;2024-02-26T00:36:18;9.80;94.60
1700;DHT22;847;48.058;7.810;2024-02-26T00:38:46;9.80;95.00
1700;DHT22;847;48.058;7.810;2024-02-26T00:41:16;9.80;95.20
1700;DHT22;847;48.058;7.810;2024-02-26T00:43:44;9.70;96.30
1700;DHT22;847;48.058;7.810;2024-02-26T00:46:13;9.60;97.40
1700;DHT22;847;48.058;7.810;2024-02-26T00:48:40;9.60;97.60
1700;DHT22;847;48.058;7.810;2024-02-26T00:51:07;9.60;98.50
1700;DHT22;847;48.058;7.810;2024-02-26T00:53:34;9.60;97.90
1700;DHT22;847;48.058;7.810;2024-02-26T00:56:02;9.70;98.60
1700;DHT22;847;48.058;7.810;2024-02-26T00:58:29;9.50;99.00
1700;DHT22;847;48.058;7.810;2024-02-26T01:00:56;9.50;99.00
1700;DHT22;847;48.058;7.810;2024-02-26T01:03:25;9.50;99.00
1700;DHT22;847;48.058;7.810;2024-02-26T01:05:51;9.40;99.00
1700;DHT22;847;48.058;7.810;2024-02-26T01:08:18;9.50;99.00
1700;DHT22;847;48.058;7.810;2024-02-26T01:10:46;9.40;99.00
1700;DHT22;847;48.058;7.810;2024-02-26T01:13:12;9.50;99.00
1700;DHT22;847;48.058;7.810;2024-02-26T01:15:40;9.40;99.00
1700;DHT22;847;48.058;7.810;2024-02-26T01:18:09;9.40;99.00
1700;DHT22;847;48.058;7.810;2024-02-26T01:20:38;9.50;99.00
1700;DHT22;847;48.058;7.810;2024-02-26T01:23:05;9.40;99.00
1700;DHT22;847;48.058;7.810;2024-02-26T01:25:32;9.30;99.00
1700;DHT22;847;48.058;7.810;2024-02-26T01:27:59;9.20;99.00
1700;DHT22;847;48.058;7.810;2024-02-26T01:30:27;9.20;99.00
1700;DHT22;847;48.058;7.810;2024-02-26T01:32:53;9.10;99.00
1700;DHT22;847;48.058;7.810;2024-02-26T01:35:21;9.00;99.00
1700;DHT22;847;48.058;7.810;2024-02-26T01:37:50;9.00;99.00
1700;DHT22;847;48.058;7.810;2024-02-26T01:40:17;8.90;99.00
1700;DHT22;847;48.058;7.810;2024-02-26T01:42:45;8.90;99.00
1700;DHT22;847;48.058;7.810;2024-02-26T01:45:16;8.90;99.00
1700;DHT22;847;48.058;7.810;2024-02-26T01:47:49;8.90;99.00
1700;DHT22;847;48.058;7.810;2024-02-26T01:50:17;9.00;99.00
1700;DHT22;847;48.058;7.810;2024-02-26T01:52:45;8.90;99.00
1700;DHT22;847;48.058;7.810;2024-02-26T01:55:14;8.90;99.00
1700;DHT22;847;48.058;7.810;2024-02-26T01:57:42;8.90;99.00
1700;DHT22;847;48.058;7.810;2024-02-26T02:00:12;8.90;99.00
1700;DHT22;847;48.058;7.810;2024-02-26T02:02:41;8.80;99.00
1700;DHT22;847;48.058;7.810;2024-02-26T02:05:12;8.80;99.00
1700;DHT22;847;48.058;7.810;2024-02-26T02:07:41;8.80;99.00
1700;DHT22;847;48.058;7.810;2024-02-26T02:10:08;8.80;99.00
1700;DHT22;847;48.058;7.810;2024-02-26T02:12:37;8.80;99.00
1700;DHT22;847;48.058;7.810;2024-02-26T02:15:06;8.80;99.00
1700;DHT22;847;48.058;7.810;2024-02-26T02:17:33;8.80;99.00
1700;DHT22;847;48.058;7.810;2024-02-26T02:20:00;8.80;99.00
1700;DHT22;847;48.058;7.810;2024-02-26T02:22:33;8.80;99.00
1700;DHT22;847;48.058;7.810;2024-02-26T02:25:00;8.80;99.00
1700;DHT22;847;48.058;7.810;2024-02-26T02:27:27;8.80;99.00
1700;DHT22;847;48.058;7.810;2024-02-26T02:29:55;8.60;99.00
1700;DHT22;847;48.058;7.810;2024-02-26T02:32:22;8.60;99.00
1700;DHT22;847;48.058;7.810;2024-02-26T02:34:51;8.60;99.00
1700;DHT22;847;48.058;7.810;2024-02-26T02:37:18;8.50;99.00
1700;DHT22;847;48.058;7.810;2024-02-26T02:39:47;8.50;99.00
1700;DHT22;847;48.058;7.810;2024-02-26T02:42:14;8.50;99.00
1700;DHT22;847;48.058;7.810;2024-02-26T02:44:41;8.60;99.00
1700;DHT22;847;48.058;7.810;2024-02-26T02:47:10;8.70;99.00
1700;DHT22;847;48.058;7.810;2024-02-26T02:49:38;8.80;99.00
1700;DHT22;847;48.058;7.810;2024-02-26T02:52:06;8.80;99.00
1700;DHT22;847;48.058;7.810;2024-02-26T02:54:35;8.80;99.00
1700;DHT22;847;48.058;7.810;2024-02-26T02:57:14;8.90;99.00
1700;DHT22;847;48.058;7.810;2024-02-26T02:59:41;8.90;99.00
1700;DHT22;847;48.058;7.810;2024-02-26T03:02:11;9.00;99.00
1700;DHT22;847;48.058;7.810;2024-02-26T03:04:39;9.00;99.00
1700;DHT22;847;48.058;7.810;2024-02-26T03:07:06;9.00;99.00
1700;DHT22;847;48.058;7.810;2024-02-26T03:09:34;9.10;99.00
1700;DHT22;847;48.058;7.810;2024-02-26T03:12:11;9.20;99.00
1700;DHT22;847;48.058;7.810;2024-02-26T03:14:39;9.20;99.00
1700;DHT22;847;48.058;7.810;2024-02-26T03:17:06;9.20;99.00
1700;DHT22;847;48.058;7.810;2024-02-26T03:19:34;9.20;99.00
1700;DHT22;847;48.058;7.810;2024-02-26T03:22:03;9.20;99.00
1700;DHT22;847;48.058;7.810;2024-02-26T03:24:31;9.30;99.00
1700;DHT22;847;48.058;7.810;2024-02-26T03:26:58;9.20;99.00
1700;DHT22;847;48.058;7.810;2024-02-26T03:29:28;9.20;99.00
1700;DHT22;847;48.058;7.810;2024-02-26T03:31:57;9.20;99.00
1700;DHT22;847;48.058;7.810;2024-02-26T03:34:24;9.20;99.00
1700;DHT22;847;48.058;7.810;2024-02-26T03:36:52;9.20;99.00
1700;DHT22;847;48.058;7.810;2024-02-26T03:39:22;9.10;99.00
1700;DHT22;847;48.058;7.810;2024-02-26T03:41:52;9.10;99.00
1700;DHT22;847;48.058;7.810;2024-02-26T03:44:20;9.10;99.00
1700;DHT22;847;48.058;7.810;2024-02-26T03:46:47;9.10;99.00
1700;DHT22;847;48.058;7.810;2024-02-26T03:49:16;9.10;99.00
1700;DHT22;847;48.058;7.810;2024-02-26T03:51:44;9.10;99.00
1700;DHT22;847;48.058;7.810;2024-02-26T03:54:10;9.10;99.00
1700;DHT22;847;48.058;7.810;2024-02-26T03:56:38;9.10;99.00
1700;DHT22;847;48.058;7.810;2024-02-26T03:59:05;9.10;99.00
1700;DHT22;847;48.058;7.810;2024-02-26T04:01:32;9.10;99.00
1700;DHT22;847;48.058;7.810;2024-02-26T04:03:59;8.90;99.00
1700;DHT22;847;48.058;7.810;2024-02-26T04:06:28;8.90;99.00
1700;DHT22;847;48.058;7.810;2024-02-26T04:08:56;8.90;99.00
1700;DHT22;847;48.058;7.810;2024-02-26T04:11:23;8.90;99.00
1700;DHT22;847;48.058;7.810;2024-02-26T04:13:51;8.90;99.00
1700;DHT22;847;48.058;7.810;2024-02-26T04:16:20;8.90;99.00
1700;DHT22;847;48.058;7.810;2024-02-26T04:18:47;8.90;99.00
1700;DHT22;847;48.058;7.810;2024-02-26T04:21:18;8.80;99.00
1700;DHT22;847;48.058;7.810;2024-02-26T04:23:46;8.80;99.00
1700;DHT22;847;48.058;7.810;2024-02-26T04:26:15;8.70;99.00
1700;DHT22;847;48.058;7.810;2024-02-26T04:28:42;8.80;99.00
1700;DHT22;847;48.058;7.810;2024-02-26T04:31:09;8.70;99.00
1700;DHT22;847;48.058;7.810;2024-02-26T04:33:36;8.70;99.00
1700;DHT22;847;48.058;7.810;2024-02-26T04:36:04;8.70;99.00
1700;DHT22;847;48.058;7.810;2024-02-26T04:38:31;8.70;99.00
1700;DHT22;847;48.058;7.810;2024-02-26T04:41:00;8.70;99.00
1700;DHT22;847;48.058;7.810;2024-02-26T04:43:27;8.60;99.00
1700;DHT22;847;48.058;7.810;2024-02-26T04:45:54;8.60;99.00
1700;DHT22;847;48.058;7.810;2024-02-26T04:48:22;8.60;99.00
1700;DHT22;847;48.058;7.810;2024-02-26T04:50:49;8.60;99.00
1700;DHT22;847;48.058;7.810;2024-02-26T04:53:16;8.60;99.00
1700;DHT22;847;48.058;7.810;2024-02-26T04:55:44;8.60;99.00
1700;DHT22;847;48.058;7.810;2024-02-26T04:58:14;8.60;99.00
1700;DHT22;847;48.058;7.810;2024-02-26T05:00:41;8.50;99.00
1700;DHT22;847;48.058;7.810;2024-02-26T05:03:11;8.50;99.00
1700;DHT22;847;48.058;7.810;2024-02-26T05:05:41;8.50;99.00
1700;DHT22;847;48.058;7.810;2024-02-26T05:08:09;8.50;99.00
1700;DHT22;847;48.058;7.810;2024-02-26T05:10:36;8.50;99.00
1700;DHT22;847;48.058;7.810;2024-02-26T05:13:19;8.50;99.00
1700;DHT22;847;48.058;7.810;2024-02-26T05:15:46;8.50;99.00
1700;DHT22;847;48.058;7.810;2024-02-26T05:18:15;8.60;99.00
1700;DHT22;847;48.058;7.810;2024-02-26T05:20:42;8.50;99.00
1700;DHT22;847;48.058;7.810;2024-02-26T05:23:09;8.50;99.00
1700;DHT22;847;48.058;7.810;2024-02-26T05:25:39;8.50;99.00
1700;DHT22;847;48.058;7.810;2024-02-26T05:28:20;8.60;99.00
1700;DHT22;847;48.058;7.810;2024-02-26T05:30:50;8.60;99.00
1700;DHT22;847;48.058;7.810;2024-02-26T05:33:17;8.60;99.00
1700;DHT22;847;48.058;7.810;2024-02-26T05:35:45;8.50;99.00
1700;DHT22;847;48.058;7.810;2024-02-26T05:38:13;8.60;99.00
1700;DHT22;847;48.058;7.810;2024-02-26T05:40:40;8.50;99.00
1700;DHT22;847;48.058;7.810;2024-02-26T05:43:08;8.60;99.00
1700;DHT22;847;48.058;7.810;2024-02-26T05:45:37;8.60;99.00
1700;DHT22;847;48.058;7.810;2024-02-26T05:48:05;8.50;99.00
1700;DHT22;847;48.058;7.810;2024-02-26T05:50:32;8.50;99.00
1700;DHT22;847;48.058;7.810;2024-02-26T05:52:59;8.50;99.00
1700;DHT22;847;48.058;7.810;2024-02-26T05:55:26;8.50;99.00
1700;DHT22;847;48.058;7.810;2024-02-26T05:57:53;8.60;99.00
1700;DHT22;847;48.058;7.810;2024-02-26T06:00:20;8.60;99.00
1700;DHT22;847;48.058;7.810;2024-02-26T06:02:49;8.60;99.00
1700;DHT22;847;48.058;7.810;2024-02-26T06:05:16;8.60;99.00
1700;DHT22;847;48.058;7.810;2024-02-26T06:07:44;8.60;99.00
1700;DHT22;847;48.058;7.810;2024-02-26T06:10:12;8.50;99.00
1700;DHT22;847;48.058;7.810;2024-02-26T06:12:53;8.40;99.00
1700;DHT22;847;48.058;7.810;2024-02-26T06:15:20;8.30;99.00
1700;DHT22;847;48.058;7.810;2024-02-26T06:17:50;8.20;99.00
1700;DHT22;847;48.058;7.810;2024-02-26T06:20:17;8.20;99.00
1700;DHT22;847;48.058;7.810;2024-02-26T06:22:44;8.20;99.00
1700;DHT22;847;48.058;7.810;2024-02-26T06:25:11;8.20;99.00
1700;DHT22;847;48.058;7.810;2024-02-26T06:27:37;8.30;99.00
1700;DHT22;847;48.058;7.810;2024-02-26T06:30:05;8.30;99.00
1700;DHT22;847;48.058;7.810;2024-02-26T06:32:34;8.30;99.00
1700;DHT22;847;48.058;7.810;2024-02-26T06:35:02;8.40;99.00
1700;DHT22;847;48.058;7.810;2024-02-26T06:37:32;8.40;99.00
1700;DHT22;847;48.058;7.810;2024-02-26T06:39:59;8.40;99.00
1700;DHT22;847;48.058;7.810;2024-02-26T06:42:26;8.50;99.00
1700;DHT22;847;48.058;7.810;2024-02-26T07:04:58;8.50;99.00
1700;DHT22;847;48.058;7.810;2024-02-26T07:08:04;8.50;99.00
1700;DHT22;847;48.058;7.810;2024-02-26T07:10:53;8.50;99.00
1700;DHT22;847;48.058;7.810;2024-02-26T07:13:25;8.50;99.00
1700;DHT22;847;48.058;7.810;2024-02-26T07:15:56;8.50;99.00
1700;DHT22;847;48.058;7.810;2024-02-26T07:18:23;8.60;99.00
1700;DHT22;847;48.058;7.810;2024-02-26T07:20:51;8.60;99.00
1700;DHT22;847;48.058;7.810;2024-02-26T07:23:19;8.60;99.00
1700;DHT22;847;48.058;7.810;2024-02-26T07:25:46;8.60;99.00
1700;DHT22;847;48.058;7.810;2024-02-26T07:28:15;8.60;99.00
1700;DHT22;847;48.058;7.810;2024-02-26T07:31:01;8.60;99.00
1700;DHT22;847;48.058;7.810;2024-02-26T07:33:56;8.50;99.00
1700;DHT22;847;48.058;7.810;2024-02-26T07:36:27;8.50;99.00
1700;DHT22;847;48.058;7.810;2024-02-26T07:38:58;8.50;99.00
1700;DHT22;847;48.058;7.810;2024-02-26T07:44:14;8.60;99.00
1700;DHT22;847;48.058;7.810;2024-02-26T07:46:42;8.60;99.00
1700;DHT22;847;48.058;7.810;2024-02-26T07:49:09;8.60;99.00
1700;DHT22;847;48.058;7.810;2024-02-26T07:51:42;8.60;99.00
1700;DHT22;847;48.058;7.810;2024-02-26T07:54:12;8.50;99.00
1700;DHT22;847;48.058;7.810;2024-02-26T07:56:46;8.60;99.00
1700;DHT22;847;48.058;7.810;2024-02-26T07:59:14;8.70;99.00
1700;DHT22;847;48.058;7.810;2024-02-26T08:01:50;8.80;99.00
1700;DHT22;847;48.058;7.810;2024-02-26T08:04:18;8.80;99.00
1700;DHT22;847;48.058;7.810;2024-02-26T08:07:01;8.90;99.00
1700;DHT22;847;48.058;7.810;2024-02-26T10:50:18;10.40;99.00
1700;DHT22;847;48.058;7.810;2024-02-26T10:52:46;10.60;99.00
1700;DHT22;847;48.058;7.810;2024-02-26T10:55:15;11.00;99.00
1700;DHT22;847;48.058;7.810;2024-02-26T10:57:45;11.20;99.00
1700;DHT22;847;48.058;7.810;2024-02-26T11:00:15;11.50;99.00
1700;DHT22;847;48.058;7.810;2024-02-26T11:02:42;11.60;99.00
1700;DHT22;847;48.058;7.810;2024-02-26T11:05:15;11.70;99.00
1700;DHT22;847;48.058;7.810;2024-02-26T11:07:45;11.90;99.00
1700;DHT22;847;48.058;7.810;2024-02-26T11:10:13;12.00;99.00
1700;DHT22;847;48.058;7.810;2024-02-26T11:12:42;12.00;99.00
1700;DHT22;847;48.058;7.810;2024-02-26T11:15:09;12.40;99.00
1700;DHT22;847;48.058;7.810;2024-02-26T11:20:19;13.00;98.70
1700;DHT22;847;48.058;7.810;2024-02-26T11:22:48;13.00;97.20
1700;DHT22;847;48.058;7.810;2024-02-26T11:25:14;12.90;97.40
1700;DHT22;847;48.058;7.810;2024-02-26T11:27:44;13.00;98.10
1700;DHT22;847;48.058;7.810;2024-02-26T11:30:13;13.40;98.00
1700;DHT22;847;48.058;7.810;2024-02-26T11:32:44;13.70;96.50
1700;DHT22;847;48.058;7.810;2024-02-26T11:35:10;13.50;96.00
1700;DHT22;847;48.058;7.810;2024-02-26T11:37:40;13.40;95.70
1700;DHT22;847;48.058;7.810;2024-02-26T11:40:11;13.40;96.60
1700;DHT22;847;48.058;7.810;2024-02-26T11:42:43;13.60;96.10
1700;DHT22;847;48.058;7.810;2024-02-26T11:45:47;13.70;94.00
1700;DHT22;847;48.058;7.810;2024-02-26T11:48:16;13.70;94.20
1700;DHT22;847;48.058;7.810;2024-02-26T11:50:47;13.50;93.10
1700;DHT22;847;48.058;7.810;2024-02-26T11:53:22;13.40;94.60
1700;DHT22;847;48.058;7.810;2024-02-26T11:56:20;13.60;95.70
1700;DHT22;847;48.058;7.810;2024-02-26T11:58:48;14.00;94.50
1700;DHT22;847;48.058;7.810;2024-02-26T12:01:40;14.20;93.80
1700;DHT22;847;48.058;7.810;2024-02-26T12:04:08;14.10;92.60
1700;DHT22;847;48.058;7.810;2024-02-26T12:06:55;13.90;93.40
1700;DHT22;847;48.058;7.810;2024-02-26T12:09:36;14.10;93.50
1700;DHT22;847;48.058;7.810;2024-02-26T12:12:05;14.00;92.10
1700;DHT22;847;48.058;7.810;2024-02-26T12:14:38;13.90;93.00
1700;DHT22;847;48.058;7.810;2024-02-26T12:17:05;13.90;91.70
1700;DHT22;847;48.058;7.810;2024-02-26T12:19:34;13.60;91.90
1700;DHT22;847;48.058;7.810;2024-02-26T12:22:03;13.70;92.60
1700;DHT22;847;48.058;7.810;2024-02-26T12:24:30;13.90;93.10
1700;DHT22;847;48.058;7.810;2024-02-26T12:26:57;14.20;92.70
1700;DHT22;847;48.058;7.810;2024-02-26T12:29:25;14.20;91.70
1700;DHT22;847;48.058;7.810;2024-02-26T12:31:52;14.20;92.30
1700;DHT22;847;48.058;7.810;2024-02-26T12:34:19;14.20;91.50
1700;DHT22;847;48.058;7.810;2024-02-26T12:36:45;14.20;92.60
1700;DHT22;847;48.058;7.810;2024-02-26T12:39:12;14.30;92.30
1700;DHT22;847;48.058;7.810;2024-02-26T12:41:39;14.20;92.10
1700;DHT22;847;48.058;7.810;2024-02-26T12:44:08;14.30;91.50
1700;DHT22;847;48.058;7.810;2024-02-26T12:46:36;14.50;91.80
1700;DHT22;847;48.058;7.810;2024-02-26T12:49:03;14.30;89.40
1700;DHT22;847;48.058;7.810;2024-02-26T12:51:29;13.90;89.30
1700;DHT22;847;48.058;7.810;2024-02-26T12:53:56;13.70;90.30
1700;DHT22;847;48.058;7.810;2024-02-26T12:56:26;13.80;90.60
1700;DHT22;847;48.058;7.810;2024-02-26T12:58:54;13.70;90.50
1700;DHT22;847;48.058;7.810;2024-02-26T13:01:23;13.70;92.00
1700;DHT22;847;48.058;7.810;2024-02-26T13:03:52;13.70;91.50
1700;DHT22;847;48.058;7.810;2024-02-26T13:06:20;13.80;91.00
1700;DHT22;847;48.058;7.810;2024-02-26T13:08:48;14.00;91.60
1700;DHT22;847;48.058;7.810;2024-02-26T13:11:15;14.10;91.10
1700;DHT22;847;48.058;7.810;2024-02-26T13:13:42;14.20;91.60
1700;DHT22;847;48.058;7.810;2024-02-26T13:16:10;14.20;91.30
1700;DHT22;847;48.058;7.810;2024-02-26T13:18:40;14.10;91.00
1700;DHT22;847;48.058;7.810;2024-02-26T13:21:12;14.00;90.60
1700;DHT22;847;48.058;7.810;2024-02-26T13:23:40;13.80;90.70
1700;DHT22;847;48.058;7.810;2024-02-26T13:26:08;13.70;89.90
1700;DHT22;847;48.058;7.810;2024-02-26T13:28:35;13.60;91.40
1700;DHT22;847;48.058;7.810;2024-02-26T13:31:02;13.70;91.70
1700;DHT22;847;48.058;7.810;2024-02-26T13:33:30;13.90;91.50
1700;DHT22;847;48.058;7.810;2024-02-26T13:35:58;13.80;91.70
1700;DHT22;847;48.058;7.810;2024-02-26T13:38:27;13.80;91.80
1700;DHT22;847;48.058;7.810;2024-02-26T13:40:54;13.80;91.60
1700;DHT22;847;48.058;7.810;2024-02-26T13:43:21;13.90;91.00
1700;DHT22;847;48.058;7.810;2024-02-26T13:45:48;13.80;91.30
1700;DHT22;847;48.058;7.810;2024-02-26T13:48:14;13.70;91.90
1700;DHT22;847;48.058;7.810;2024-02-26T13:50:42;13.70;92.00
1700;DHT22;847;48.058;7.810;2024-02-26T13:53:10;13.80;91.40
1700;DHT22;847;48.058;7.810;2024-02-26T13:55:38;13.80;92.60
1700;DHT22;847;48.058;7.810;2024-02-26T13:58:07;13.70;92.10
1700;DHT22;847;48.058;7.810;2024-02-26T14:00:35;13.70;93.30
1700;DHT22;847;48.058;7.810;2024-02-26T14:03:02;13.80;92.70
1700;DHT22;847;48.058;7.810;2024-02-26T14:05:29;13.80;92.20
1700;DHT22;847;48.058;7.810;2024-02-26T14:07:56;13.80;92.60
1700;DHT22;847;48.058;7.810;2024-02-26T14:10:22;13.70;92.90
1700;DHT22;847;48.058;7.810;2024-02-26T14:12:50;13.70;93.20
1700;DHT22;847;48.058;7.810;2024-02-26T14:15:17;13.90;93.20
1700;DHT22;847;48.058;7.810;2024-02-26T14:17:44;13.80;93.60
1700;DHT22;847;48.058;7.810;2024-02-26T14:20:11;13.90;94.10
1700;DHT22;847;48.058;7.810;2024-02-26T14:22:38;13.90;93.60
1700;DHT22;847;48.058;7.810;2024-02-26T14:25:05;14.00;93.20
1700;DHT22;847;48.058;7.810;2024-02-26T14:27:34;13.90;92.80
1700;DHT22;847;48.058;7.810;2024-02-26T14:30:03;13.80;93.20
1700;DHT22;847;48.058;7.810;2024-02-26T14:32:30;13.80;93.40
1700;DHT22;847;48.058;7.810;2024-02-26T14:35:00;13.90;93.80
1700;DHT22;847;48.058;7.810;2024-02-26T14:37:28;13.90;94.00
1700;DHT22;847;48.058;7.810;2024-02-26T14:39:55;14.00;93.80
1700;DHT22;847;48.058;7.810;2024-02-26T14:42:21;14.20;93.70
1700;DHT22;847;48.058;7.810;2024-02-26T14:44:49;14.30;92.90
1700;DHT22;847;48.058;7.810;2024-02-26T14:47:17;14.40;93.40
1700;DHT22;847;48.058;7.810;2024-02-26T14:49:44;14.40;92.60
1700;DHT22;847;48.058;7.810;2024-02-26T14:52:13;14.50;93.90
1700;DHT22;847;48.058;7.810;2024-02-26T14:54:40;14.50;94.00
1700;DHT22;847;48.058;7.810;2024-02-26T14:57:07;14.50;93.60
1700;DHT22;847;48.058;7.810;2024-02-26T14:59:33;14.30;93.40
1700;DHT22;847;48.058;7.810;2024-02-26T15:02:02;14.40;93.20
1700;DHT22;847;48.058;7.810;2024-02-26T15:04:30;14.40;94.30
1700;DHT22;847;48.058;7.810;2024-02-26T15:06:56;14.30;93.50
1700;DHT22;847;48.058;7.810;2024-02-26T15:09:23;14.40;93.20
1700;DHT22;847;48.058;7.810;2024-02-26T15:11:50;14.30;93.30
1700;DHT22;847;48.058;7.810;2024-02-26T15:14:16;14.20;93.70
1700;DHT22;847;48.058;7.810;2024-02-26T15:16:43;14.30;93.70
1700;DHT22;847;48.058;7.810;2024-02-26T15:19:10;14.40;94.00
1700;DHT22;847;48.058;7.810;2024-02-26T15:21:43;14.40;93.10
1700;DHT22;847;48.058;7.810;2024-02-26T15:24:10;14.50;93.90
1700;DHT22;847;48.058;7.810;2024-02-26T15:26:37;14.40;94.70
1700;DHT22;847;48.058;7.810;2024-02-26T15:29:05;14.40;94.70
1700;DHT22;847;48.058;7.810;2024-02-26T15:31:34;14.40;95.10
1700;DHT22;847;48.058;7.810;2024-02-26T15:34:00;14.30;94.80
1700;DHT22;847;48.058;7.810;2024-02-26T15:36:27;14.20;94.50
1700;DHT22;847;48.058;7.810;2024-02-26T15:38:55;14.20;94.20
1700;DHT22;847;48.058;7.810;2024-02-26T15:41:23;14.10;94.00
1700;DHT22;847;48.058;7.810;2024-02-26T15:43:49;14.20;94.60
1700;DHT22;847;48.058;7.810;2024-02-26T15:46:16;14.30;95.30
1700;DHT22;847;48.058;7.810;2024-02-26T15:48:43;14.40;95.20
1700;DHT22;847;48.058;7.810;2024-02-26T15:51:18;14.50;95.00
1700;DHT22;847;48.058;7.810;2024-02-26T15:53:45;14.40;95.00
1700;DHT22;847;48.058;7.810;2024-02-26T15:56:14;14.40;94.00
1700;DHT22;847;48.058;7.810;2024-02-26T15:58:40;14.50;93.50
1700;DHT22;847;48.058;7.810;2024-02-26T16:01:07;14.40;91.40
1700;DHT22;847;48.058;7.810;2024-02-26T16:03:37;14.50;92.50
1700;DHT22;847;48.058;7.810;2024-02-26T16:06:04;14.40;90.50
1700;DHT22;847;48.058;7.810;2024-02-26T16:08:31;14.40;90.30
1700;DHT22;847;48.058;7.810;2024-02-26T16:10:58;14.30;89.20
1700;DHT22;847;48.058;7.810;2024-02-26T16:13:27;14.20;88.40
1700;DHT22;847;48.058;7.810;2024-02-26T16:15:57;14.20;89.50
1700;DHT22;847;48.058;7.810;2024-02-26T16:18:25;14.10;89.70
1700;DHT22;847;48.058;7.810;2024-02-26T16:20:51;14.00;86.90
1700;DHT22;847;48.058;7.810;2024-02-26T16:23:20;14.00;85.50
1700;DHT22;847;48.058;7.810;2024-02-26T16:25:48;13.90;84.60
1700;DHT22;847;48.058;7.810;2024-02-26T16:28:14;14.00;84.30
1700;DHT22;847;48.058;7.810;2024-02-26T16:30:43;13.90;84.70
1700;DHT22;847;48.058;7.810;2024-02-26T16:33:09;13.80;84.30
1700;DHT22;847;48.058;7.810;2024-02-26T16:35:37;13.70;84.10
1700;DHT22;847;48.058;7.810;2024-02-26T16:38:04;13.60;84.00
1700;DHT22;847;48.058;7.810;2024-02-26T16:40:30;13.60;84.10
1700;DHT22;847;48.058;7.810;2024-02-26T16:42:57;13.50;83.70
1700;DHT22;847;48.058;7.810;2024-02-26T16:45:24;13.50;84.70
1700;DHT22;847;48.058;7.810;2024-02-26T16:47:53;13.40;84.10
1700;DHT22;847;48.058;7.810;2024-02-26T16:50:19;13.40;84.50
1700;DHT22;847;48.058;7.810;2024-02-26T16:52:46;13.40;84.80
1700;DHT22;847;48.058;7.810;2024-02-26T16:55:14;13.40;84.30
1700;DHT22;847;48.058;7.810;2024-02-26T16:57:40;13.30;84.30
1700;DHT22;847;48.058;7.810;2024-02-26T17:00:08;13.30;84.60
1700;DHT22;847;48.058;7.810;2024-02-26T17:02:38;13.40;84.70
1700;DHT22;847;48.058;7.810;2024-02-26T17:05:06;13.40;85.00
1700;DHT22;847;48.058;7.810;2024-02-26T17:07:35;13.40;84.50
1700;DHT22;847;48.058;7.810;2024-02-26T17:10:02;13.30;84.70
1700;DHT22;847;48.058;7.810;2024-02-26T17:12:29;13.30;85.10
1700;DHT22;847;48.058;7.810;2024-02-26T17:14:55;13.40;85.70
1700;DHT22;847;48.058;7.810;2024-02-26T17:17:23;13.50;85.10
1700;DHT22;847;48.058;7.810;2024-02-26T17:19:50;13.50;85.50
1700;DHT22;847;48.058;7.810;2024-02-26T17:22:18;13.40;86.10
1700;DHT22;847;48.058;7.810;2024-02-26T17:24:45;13.40;86.50
1700;DHT22;847;48.058;7.810;2024-02-26T17:27:12;13.30;87.00
1700;DHT22;847;48.058;7.810;2024-02-26T17:29:39;13.30;86.60
1700;DHT22;847;48.058;7.810;2024-02-26T17:32:06;13.20;87.20
1700;DHT22;847;48.058;7.810;2024-02-26T17:34:33;13.30;87.70
1700;DHT22;847;48.058;7.810;2024-02-26T17:37:00;13.30;88.70
1700;DHT22;847;48.058;7.810;2024-02-26T17:39:28;13.30;89.40
1700;DHT22;847;48.058;7.810;2024-02-26T17:41:56;13.20;90.10
1700;DHT22;847;48.058;7.810;2024-02-26T17:44:22;13.20;90.60
1700;DHT22;847;48.058;7.810;2024-02-26T17:46:51;13.20;91.30
1700;DHT22;847;48.058;7.810;2024-02-26T17:49:18;13.00;92.00
1700;DHT22;847;48.058;7.810;2024-02-26T17:51:49;13.00;92.10
1700;DHT22;847;48.058;7.810;2024-02-26T17:54:16;13.10;92.10
1700;DHT22;847;48.058;7.810;2024-02-26T17:56:44;13.10;92.40
1700;DHT22;847;48.058;7.810;2024-02-26T17:59:10;12.90;93.10
1700;DHT22;847;48.058;7.810;2024-02-26T18:01:37;13.00;92.70
1700;DHT22;847;48.058;7.810;2024-02-26T18:04:04;13.00;92.80
1700;DHT22;847;48.058;7.810;2024-02-26T18:06:31;12.90;93.50
1700;DHT22;847;48.058;7.810;2024-02-26T18:08:57;12.70;94.10
1700;DHT22;847;48.058;7.810;2024-02-26T18:11:24;12.60;94.30
1700;DHT22;847;48.058;7.810;2024-02-26T18:13:52;12.60;94.50
1700;DHT22;847;48.058;7.810;2024-02-26T18:16:19;12.70;94.30
1700;DHT22;847;48.058;7.810;2024-02-26T18:18:45;12.70;94.30
1700;DHT22;847;48.058;7.810;2024-02-26T18:21:12;12.60;94.30
1700;DHT22;847;48.058;7.810;2024-02-26T18:23:41;12.50;94.70
1700;DHT22;847;48.058;7.810;2024-02-26T18:28:44;12.40;95.30
1700;DHT22;847;48.058;7.810;2024-02-26T18:31:12;12.30;95.10
1700;DHT22;847;48.058;7.810;2024-02-26T18:33:39;12.10;95.50
1700;DHT22;847;48.058;7.810;2024-02-26T18:36:07;12.00;96.10
1700;DHT22;847;48.058;7.810;2024-02-26T18:38:34;12.00;95.90
1700;DHT22;847;48.058;7.810;2024-02-26T18:41:02;11.90;95.60
1700;DHT22;847;48.058;7.810;2024-02-26T18:43:28;11.90;95.70
1700;DHT22;847;48.058;7.810;2024-02-26T18:45:56;11.80;96.10
1700;DHT22;847;48.058;7.810;2024-02-26T18:48:25;11.80;95.60
1700;DHT22;847;48.058;7.810;2024-02-26T18:50:52;11.70;95.40
1700;DHT22;847;48.058;7.810;2024-02-26T18:53:19;11.70;95.10
1700;DHT22;847;48.058;7.810;2024-02-26T18:55:45;11.60;94.90
1700;DHT22;847;48.058;7.810;2024-02-26T18:58:12;11.60;95.20
1700;DHT22;847;48.058;7.810;2024-02-26T19:00:39;11.60;95.20
1700;DHT22;847;48.058;7.810;2024-02-26T19:03:06;11.60;95.40
1700;DHT22;847;48.058;7.810;2024-02-26T19:05:34;11.70;95.30
1700;DHT22;847;48.058;7.810;2024-02-26T19:08:01;11.60;95.20
1700;DHT22;847;48.058;7.810;2024-02-26T19:10:28;11.60;94.90
1700;DHT22;847;48.058;7.810;2024-02-26T19:12:55;11.60;94.90
1700;DHT22;847;48.058;7.810;2024-02-26T19:15:23;11.50;94.30
1700;DHT22;847;48.058;7.810;2024-02-26T19:17:50;11.50;94.60
1700;DHT22;847;48.058;7.810;2024-02-26T19:20:17;11.50;94.60
1700;DHT22;847;48.058;7.810;2024-02-26T19:22:47;11.40;94.40
1700;DHT22;847;48.058;7.810;2024-02-26T19:25:14;11.50;94.60
1700;DHT22;847;48.058;7.810;2024-02-26T19:27:41;11.40;94.00
1700;DHT22;847;48.058;7.810;2024-02-26T19:30:09;11.40;93.50
1700;DHT22;847;48.058;7.810;2024-02-26T19:32:35;11.30;93.50
1700;DHT22;847;48.058;7.810;2024-02-26T19:35:03;11.30;94.00
1700;DHT22;847;48.058;7.810;2024-02-26T19:37:32;11.20;94.20
1700;DHT22;847;48.058;7.810;2024-02-26T19:40:00;11.20;94.10
1700;DHT22;847;48.058;7.810;2024-02-26T19:42:27;11.20;94.70